createdAt,value
2023-05-23T00:02:00.975Z,80.99
2023-05-23T00:05:04.615Z,81.26
2023-05-23T00:08:07.480Z,81.13
2023-05-23T00:11:10.802Z,80.43
2023-05-23T00:14:17.277Z,80.63
2023-05-23T00:17:27.220Z,80.84
2023-05-23T00:20:30.949Z,80.45
2023-05-23T00:23:34.152Z,80.63
2023-05-23T00:26:37.253Z,81.19
2023-05-23T00:29:40.122Z,81.03
2023-05-23T00:32:43.025Z,81.47
2023-05-23T00:35:45.979Z,81.58
2023-05-23T00:38:51.357Z,81.24
2023-05-23T00:41:54.665Z,81.99
2023-05-23T00:44:57.372Z,81.32
2023-05-23T00:48:01.470Z,81.45
2023-05-23T00:51:04.378Z,81.82
2023-05-23T00:54:07.441Z,81.56
2023-05-23T00:57:10.208Z,81.82
2023-05-23T01:00:14.149Z,81.57
2023-05-23T01:03:18.667Z,82.14
2023-05-23T01:06:21.732Z,82.57
2023-05-23T01:09:26.492Z,82.60
2023-05-23T01:12:50.692Z,82.79
2023-05-23T01:16:02.969Z,82.57
2023-05-23T01:19:32.993Z,82.25
2023-05-23T01:22:57.706Z,81.96
2023-05-23T01:26:20.290Z,82.90
2023-05-23T01:29:33.073Z,83.97
2023-05-23T01:32:37.333Z,84.12
2023-05-23T01:35:40.566Z,83.84
2023-05-23T01:38:43.457Z,83.81
2023-05-23T01:41:46.529Z,83.08
2023-05-23T01:44:49.420Z,83.38
2023-05-23T01:47:54.307Z,83.65
2023-05-23T01:50:57.709Z,83.96
2023-05-23T01:54:01.297Z,85.33
2023-05-23T01:57:05.676Z,85.36
2023-05-23T02:00:12.592Z,85.11
2023-05-23T02:03:18.918Z,84.14
2023-05-23T02:06:21.767Z,84.71
2023-05-23T02:09:24.794Z,84.78
2023-05-23T02:12:27.913Z,84.68
2023-05-23T02:15:31.480Z,85.82
2023-05-23T02:18:38.566Z,86.88
2023-05-23T02:21:41.414Z,87.10
2023-05-23T02:24:44.366Z,86.48
2023-05-23T02:27:49.001Z,87.14
2023-05-23T02:30:52.277Z,87.97
2023-05-23T02:33:55.135Z,88.26
2023-05-23T02:36:58.135Z,86.91
2023-05-23T02:40:01.930Z,86.47
2023-05-23T02:43:04.816Z,86.93
2023-05-23T02:46:07.705Z,86.53
2023-05-23T02:49:10.724Z,86.23
2023-05-23T02:52:14.262Z,86.03
2023-05-23T02:55:17.049Z,86.02
2023-05-23T02:58:24.291Z,85.69
2023-05-23T03:01:27.862Z,85.46
2023-05-23T03:04:31.687Z,86.15
2023-05-23T03:07:34.581Z,86.49
2023-05-23T03:10:37.399Z,85.67
2023-05-23T03:13:40.344Z,86.32
2023-05-23T03:16:43.193Z,85.69
2023-05-23T03:19:46.061Z,84.85
2023-05-23T03:22:49.229Z,83.37
2023-05-23T03:25:52.336Z,83.16
2023-05-23T03:28:55.117Z,85.56
2023-05-23T03:31:58.011Z,86.58
2023-05-23T03:35:00.982Z,87.42
2023-05-23T03:38:04.417Z,87.55
2023-05-23T03:41:08.800Z,85.70
2023-05-23T03:44:11.908Z,85.13
2023-05-23T03:47:14.988Z,84.00
2023-05-23T03:50:21.061Z,84.21
2023-05-23T03:53:24.101Z,84.50
2023-05-23T03:56:27.564Z,82.78
2023-05-23T03:59:30.563Z,82.16
2023-05-23T04:02:34.124Z,70.54
2023-05-23T04:05:37.052Z,64.04
2023-05-23T04:08:42.284Z,60.11
2023-05-23T04:11:45.610Z,57.95
2023-05-23T04:14:49.056Z,56.70
2023-05-23T04:17:52.813Z,55.19
2023-05-23T04:20:56.117Z,54.19
2023-05-23T04:23:59.737Z,53.55
2023-05-23T04:27:03.169Z,55.14
2023-05-23T04:30:08.625Z,58.97
2023-05-23T04:33:12.234Z,62.53
2023-05-23T04:36:16.711Z,64.46
2023-05-23T04:39:24.616Z,67.19
2023-05-23T04:42:53.091Z,67.59
2023-05-23T04:46:22.728Z,68.84
2023-05-23T04:49:34.447Z,68.31
2023-05-23T04:52:38.648Z,69.10
2023-05-23T04:55:42.091Z,69.80
2023-05-23T04:58:50.145Z,71.67
2023-05-23T05:01:53.448Z,71.77
2023-05-23T05:04:57.116Z,72.87
2023-05-23T05:08:00.476Z,71.65
2023-05-23T05:11:03.890Z,71.17
2023-05-23T05:14:06.997Z,71.04
2023-05-23T05:17:11.617Z,70.83
2023-05-23T05:20:28.298Z,70.50
2023-05-23T05:23:32.161Z,71.40
2023-05-23T05:26:36.956Z,70.18
2023-05-23T05:29:40.918Z,70.42
2023-05-23T05:32:46.593Z,70.03
2023-05-23T05:35:51.861Z,70.04
2023-05-23T05:38:54.988Z,68.65
2023-05-23T05:41:57.928Z,68.97
2023-05-23T05:45:00.913Z,69.01
2023-05-23T05:48:05.071Z,68.17
2023-05-23T05:51:08.555Z,68.08
2023-05-23T05:54:11.583Z,66.97
2023-05-23T05:57:14.602Z,66.76
2023-05-23T06:00:21.002Z,66.19
2023-05-23T06:03:34.490Z,64.54
2023-05-23T06:06:37.807Z,65.09
2023-05-23T06:09:41.115Z,65.22
2023-05-23T06:12:46.029Z,64.72
2023-05-23T06:15:49.335Z,64.71
2023-05-23T06:18:52.765Z,64.63
2023-05-23T06:21:57.489Z,64.24
2023-05-23T06:25:00.556Z,66.15
2023-05-23T06:28:03.593Z,66.77
2023-05-23T06:31:07.106Z,66.55
2023-05-23T06:34:12.560Z,64.05
2023-05-23T06:37:15.703Z,63.46
2023-05-23T06:40:18.763Z,61.94
2023-05-23T06:43:21.959Z,62.09
2023-05-23T06:46:28.671Z,60.98
2023-05-23T06:49:31.551Z,60.56
2023-05-23T06:52:34.615Z,59.91
2023-05-23T06:55:40.254Z,59.54
2023-05-23T06:58:47.085Z,59.21
2023-05-23T07:01:50.548Z,58.66
2023-05-23T07:04:54.213Z,58.65
2023-05-23T07:08:17.171Z,58.89
2023-05-23T07:11:31.992Z,58.10
2023-05-23T07:14:36.126Z,59.65
2023-05-23T07:17:39.139Z,59.65
2023-05-23T07:20:42.553Z,58.54
2023-05-23T07:23:53.013Z,59.26
2023-05-23T07:26:56.483Z,58.50
2023-05-23T07:30:01.873Z,58.38
2023-05-23T07:33:05.254Z,57.95
2023-05-23T07:36:11.938Z,57.75
2023-05-23T07:39:15.956Z,58.15
2023-05-23T07:42:19.134Z,57.26
2023-05-23T07:45:22.449Z,57.49
2023-05-23T07:48:27.629Z,57.95
2023-05-23T07:51:31.395Z,56.75
2023-05-23T07:54:35.595Z,56.69
2023-05-23T07:57:39.517Z,57.83
2023-05-23T08:00:42.790Z,57.91
2023-05-23T08:03:57.912Z,58.77
2023-05-23T08:07:08.798Z,56.54
2023-05-23T08:10:29.980Z,56.16
2023-05-23T08:13:40.183Z,54.54
2023-05-23T08:17:09.183Z,54.17
2023-05-23T08:20:12.719Z,53.44
2023-05-23T08:23:15.858Z,54.32
2023-05-23T08:26:18.999Z,53.62
2023-05-23T08:29:23.188Z,53.08
2023-05-23T08:32:26.411Z,51.48
2023-05-23T08:35:35.377Z,51.80
2023-05-23T08:38:41.688Z,51.13
2023-05-23T08:41:50.169Z,51.59
2023-05-23T08:44:54.284Z,51.90
2023-05-23T08:48:01.407Z,52.01
2023-05-23T08:51:07.948Z,52.45
2023-05-23T08:54:13.619Z,53.54
2023-05-23T08:57:17.651Z,53.94
2023-05-23T09:00:26.977Z,54.26
2023-05-23T09:03:30.768Z,54.12
2023-05-23T09:06:57.527Z,54.33
2023-05-23T09:10:00.880Z,54.33
2023-05-23T09:13:06.120Z,54.99
2023-05-23T09:16:11.484Z,54.22
2023-05-23T09:19:22.228Z,52.47
2023-05-23T09:22:35.484Z,53.20
2023-05-23T09:25:47.950Z,52.75
2023-05-23T09:28:52.435Z,52.14
2023-05-23T09:32:14.365Z,52.35
2023-05-23T09:35:17.370Z,51.95
2023-05-23T09:38:22.038Z,50.18
2023-05-23T09:41:25.757Z,49.34
2023-05-23T09:44:28.916Z,50.24
2023-05-23T09:47:32.090Z,47.95
2023-05-23T09:50:35.268Z,49.65
2023-05-23T09:53:39.969Z,50.77
2023-05-23T09:56:44.470Z,49.95
2023-05-23T09:59:53.903Z,50.26
2023-05-23T10:03:15.229Z,50.09
2023-05-23T10:06:27.274Z,50.42
2023-05-23T10:09:34.216Z,52.44
2023-05-23T10:12:46.672Z,51.73
2023-05-23T10:15:50.639Z,52.08
2023-05-23T10:19:00.032Z,52.01
2023-05-23T10:22:07.632Z,51.36
2023-05-23T10:25:10.988Z,51.97
2023-05-23T10:28:14.554Z,52.42
2023-05-23T10:31:18.203Z,52.29
2023-05-23T10:34:24.706Z,52.31
2023-05-23T10:38:14.367Z,51.89
2023-05-23T10:41:24.779Z,51.50
2023-05-23T10:44:30.624Z,51.66
2023-05-23T10:47:34.774Z,50.40
2023-05-23T10:50:38.923Z,50.59
2023-05-23T10:53:44.260Z,50.21
2023-05-23T10:56:47.391Z,49.51
2023-05-23T10:59:53.459Z,49.89
2023-05-23T11:03:00.326Z,49.00
2023-05-23T11:06:05.043Z,48.12
2023-05-23T11:09:11.671Z,48.68
2023-05-23T11:12:14.824Z,49.10
2023-05-23T11:15:18.670Z,49.21
2023-05-23T11:18:25.374Z,48.44
2023-05-23T11:21:30.241Z,48.30
2023-05-23T11:24:53.180Z,46.71
2023-05-23T11:27:56.382Z,47.92
2023-05-23T11:30:59.338Z,47.02
2023-05-23T11:34:02.531Z,46.27
2023-05-23T11:37:05.507Z,46.27
2023-05-23T11:40:30.232Z,46.02
2023-05-23T11:43:33.491Z,46.54
2023-05-23T11:46:36.547Z,46.66
2023-05-23T11:49:40.759Z,45.48
2023-05-23T11:52:43.725Z,45.42
2023-05-23T11:55:55.495Z,44.50
2023-05-23T11:59:00.937Z,45.50
2023-05-23T12:02:04.341Z,44.84
2023-05-23T12:05:11.926Z,44.66
2023-05-23T12:08:15.571Z,44.49
2023-05-23T12:11:19.006Z,44.50
2023-05-23T12:14:22.038Z,44.22
2023-05-23T12:17:25.285Z,43.67
2023-05-23T12:20:28.323Z,44.50
2023-05-23T12:23:34.520Z,42.24
2023-05-23T12:26:47.469Z,44.58
2023-05-23T12:30:09.740Z,44.00
2023-05-23T12:33:13.008Z,45.14
2023-05-23T12:36:17.092Z,46.41
2023-05-23T12:39:26.841Z,45.85
2023-05-23T12:42:30.829Z,45.93
2023-05-23T12:45:35.318Z,46.60
2023-05-23T12:48:38.402Z,46.61
2023-05-23T12:51:41.603Z,47.38
2023-05-23T12:54:44.607Z,47.50
2023-05-23T12:57:47.661Z,47.67
2023-05-23T13:00:51.036Z,47.60
2023-05-23T13:03:54.200Z,46.78
2023-05-23T13:06:57.377Z,47.17
2023-05-23T13:10:00.399Z,47.28
2023-05-23T13:13:03.565Z,46.44
2023-05-23T13:16:06.879Z,47.79
2023-05-23T13:19:09.909Z,47.83
2023-05-23T13:22:12.822Z,47.83
2023-05-23T13:25:16.718Z,48.35
2023-05-23T13:28:19.799Z,48.38
2023-05-23T13:31:22.793Z,49.25
2023-05-23T13:34:27.133Z,49.50
2023-05-23T13:37:29.999Z,49.16
2023-05-23T13:40:33.548Z,49.21
2023-05-23T13:43:37.134Z,49.56
2023-05-23T13:46:40.315Z,49.75
2023-05-23T13:49:43.494Z,50.55
2023-05-23T13:52:48.981Z,51.29
2023-05-23T13:55:52.746Z,51.69
2023-05-23T13:58:55.927Z,52.17
2023-05-23T14:01:59.048Z,54.18
2023-05-23T14:05:02.233Z,55.09
2023-05-23T14:08:05.260Z,56.94
2023-05-23T14:11:08.362Z,57.68
2023-05-23T14:14:11.516Z,63.92
2023-05-23T14:17:17.700Z,71.99
2023-05-23T14:20:20.560Z,77.59
2023-05-23T14:23:23.707Z,79.60
2023-05-23T14:26:27.006Z,81.61
2023-05-23T14:29:30.387Z,81.83
2023-05-23T14:32:38.977Z,82.71
2023-05-23T14:35:43.533Z,83.34
2023-05-23T14:38:47.062Z,84.79
2023-05-23T14:41:50.167Z,85.53
2023-05-23T14:44:56.695Z,84.50
2023-05-23T14:47:59.512Z,87.66
2023-05-23T14:51:02.309Z,79.04
2023-05-23T14:54:05.181Z,81.48
2023-05-23T14:57:09.755Z,85.33
2023-05-23T15:00:13.572Z,80.88
2023-05-23T15:03:16.484Z,80.73
2023-05-23T15:06:19.662Z,80.08
2023-05-23T15:09:23.166Z,80.77
2023-05-23T15:12:26.225Z,82.55
2023-05-23T15:15:37.672Z,89.13
2023-05-23T15:18:42.232Z,88.81
2023-05-23T15:24:51.519Z,96.18
2023-05-23T15:27:54.595Z,95.72
2023-05-23T15:30:57.628Z,96.71
2023-05-23T15:34:01.024Z,97.14
2023-05-23T15:37:04.601Z,97.71
2023-05-23T15:40:08.349Z,99.58
2023-05-23T15:43:11.670Z,98.54
2023-05-23T15:46:14.923Z,96.82
2023-05-23T15:49:26.375Z,94.76
2023-05-23T15:52:30.398Z,94.19
2023-05-23T15:55:33.466Z,96.04
2023-05-23T15:58:38.724Z,95.61
2023-05-23T16:01:42.297Z,97.35
2023-05-23T16:04:45.547Z,96.88
2023-05-23T16:07:48.398Z,95.17
2023-05-23T16:10:51.744Z,96.17
2023-05-23T16:13:54.689Z,92.96
2023-05-23T16:16:57.779Z,90.54
2023-05-23T16:20:03.127Z,90.45
2023-05-23T16:23:09.200Z,90.33
2023-05-23T16:26:12.133Z,91.35
2023-05-23T16:29:15.246Z,89.86
2023-05-23T16:32:18.408Z,89.63
2023-05-23T16:35:22.007Z,88.18
2023-05-23T16:38:25.222Z,88.38
2023-05-23T16:41:28.606Z,88.33
2023-05-23T16:44:31.939Z,88.98
2023-05-23T16:47:34.973Z,89.06
2023-05-23T16:50:38.065Z,87.30
2023-05-23T16:53:40.886Z,88.37
2023-05-23T16:56:44.138Z,87.86
2023-05-23T16:59:46.956Z,87.95
2023-05-23T17:02:53.737Z,90.15
2023-05-23T17:05:56.694Z,88.56
2023-05-23T17:08:59.820Z,88.51
2023-05-23T17:12:03.585Z,88.07
2023-05-23T17:15:08.024Z,89.35
2023-05-23T17:18:11.143Z,88.22
2023-05-23T17:21:14.057Z,87.29
2023-05-23T17:24:17.235Z,86.85
2023-05-23T17:27:20.226Z,85.42
2023-05-23T17:30:23.477Z,85.39
2023-05-23T17:33:26.525Z,84.88
2023-05-23T17:36:30.105Z,85.55
2023-05-23T17:39:33.180Z,85.17
2023-05-23T17:42:36.362Z,85.38
2023-05-23T17:45:39.331Z,85.74
2023-05-23T17:48:47.639Z,85.73
2023-05-23T17:51:51.349Z,87.19
2023-05-23T17:54:54.496Z,89.67
2023-05-23T17:57:57.599Z,90.02
2023-05-23T18:01:01.356Z,92.88
2023-05-23T18:04:04.453Z,90.96
2023-05-23T18:07:11.020Z,90.52
2023-05-23T18:10:14.865Z,89.68
2023-05-23T18:13:17.978Z,91.99
2023-05-23T18:16:20.940Z,91.74
2023-05-23T18:19:23.998Z,89.60
2023-05-23T18:22:27.429Z,90.06
2023-05-23T18:25:30.666Z,90.10
2023-05-23T18:28:33.968Z,89.98
2023-05-23T18:31:37.293Z,89.26
2023-05-23T18:34:40.768Z,89.75
2023-05-23T18:37:43.890Z,90.60
2023-05-23T18:40:47.415Z,90.32
2023-05-23T18:43:51.244Z,92.30
2023-05-23T18:46:54.295Z,91.47
2023-05-23T18:49:57.365Z,90.90
2023-05-23T18:53:00.428Z,91.50
2023-05-23T18:56:03.440Z,90.13
2023-05-23T18:59:06.461Z,90.08
2023-05-23T19:02:09.670Z,90.18
2023-05-23T19:05:13.388Z,90.75
2023-05-23T19:08:16.616Z,90.22
2023-05-23T19:11:19.487Z,91.09
2023-05-23T19:14:22.729Z,92.42
2023-05-23T19:17:26.128Z,91.26
2023-05-23T19:20:29.251Z,90.28
2023-05-23T19:23:32.609Z,89.85
2023-05-23T19:26:35.723Z,89.48
2023-05-23T19:29:38.557Z,89.95
2023-05-23T19:32:41.779Z,90.45
2023-05-23T19:35:44.764Z,91.28
2023-05-23T19:38:47.782Z,90.89
2023-05-23T19:41:50.635Z,91.64
2023-05-23T19:44:53.700Z,91.13
2023-05-23T19:47:58.221Z,90.55
2023-05-23T19:51:01.257Z,90.64
2023-05-23T19:54:04.470Z,90.67
2023-05-23T19:57:07.591Z,90.78
2023-05-23T20:00:10.965Z,91.51
2023-05-23T20:03:13.905Z,91.71
2023-05-23T20:06:18.834Z,91.91
2023-05-23T20:09:22.788Z,90.90
2023-05-23T20:12:25.704Z,91.05
2023-05-23T20:15:39.422Z,91.24
2023-05-23T20:18:43.676Z,91.59
2023-05-23T20:21:46.634Z,90.75
2023-05-23T20:24:49.908Z,90.33
2023-05-23T20:27:52.987Z,90.13
2023-05-23T20:30:56.106Z,90.07
2023-05-23T20:33:59.064Z,89.25
2023-05-23T20:37:02.247Z,90.41
2023-05-23T20:40:07.921Z,91.67
2023-05-23T20:43:10.882Z,91.00
2023-05-23T20:46:16.795Z,90.21
2023-05-23T20:49:19.946Z,89.80
2023-05-23T20:52:23.352Z,90.38
2023-05-23T20:55:28.370Z,91.47
2023-05-23T20:58:34.303Z,91.47
2023-05-23T21:01:37.636Z,90.92
2023-05-23T21:04:40.514Z,90.25
2023-05-23T21:07:43.401Z,89.82
2023-05-23T21:10:49.819Z,89.79
2023-05-23T21:13:54.736Z,89.77
2023-05-23T21:16:57.525Z,91.63
2023-05-23T21:20:00.476Z,92.61
2023-05-23T21:23:03.260Z,93.54
2023-05-23T21:26:06.639Z,96.12
2023-05-23T21:29:09.592Z,96.48
2023-05-23T21:32:12.560Z,98.31
2023-05-23T21:35:15.569Z,100.00
2023-05-23T21:38:18.334Z,100.00
2023-05-23T21:41:25.399Z,100.00
2023-05-23T21:44:28.108Z,100.00
2023-05-23T21:47:30.902Z,100.00
2023-05-23T21:50:33.703Z,100.00
2023-05-23T21:53:36.445Z,100.00
2023-05-23T21:56:39.413Z,100.00
2023-05-23T21:59:42.383Z,100.00
2023-05-23T22:02:45.395Z,100.00
2023-05-23T22:05:48.415Z,100.00
2023-05-23T22:08:51.395Z,100.00
2023-05-23T22:11:54.338Z,100.00
2023-05-23T22:14:57.786Z,100.00
2023-05-23T22:18:00.733Z,100.00
2023-05-23T22:21:04.081Z,100.00
2023-05-23T22:24:07.049Z,100.00
2023-05-23T22:27:09.889Z,100.00
2023-05-23T22:30:12.903Z,100.00
2023-05-23T22:33:16.054Z,100.00
2023-05-23T22:36:18.871Z,100.00
2023-05-23T22:39:21.698Z,100.00
2023-05-23T22:42:24.421Z,100.00
2023-05-23T22:45:29.089Z,100.00
2023-05-23T22:48:34.648Z,100.00
2023-05-23T22:51:37.442Z,100.00
2023-05-23T22:54:40.136Z,100.00
2023-05-23T22:57:42.855Z,100.00
2023-05-23T23:00:46.264Z,100.00
2023-05-23T23:03:49.448Z,100.00
2023-05-23T23:06:54.004Z,100.00
2023-05-23T23:09:56.754Z,100.00
2023-05-23T23:12:59.522Z,100.00
2023-05-23T23:16:02.342Z,100.00
2023-05-23T23:19:06.032Z,100.00
2023-05-23T23:22:08.754Z,100.00
2023-05-23T23:25:11.466Z,100.00
2023-05-23T23:28:14.393Z,100.00
2023-05-23T23:31:17.485Z,100.00
2023-05-23T23:34:20.168Z,100.00
2023-05-23T23:37:23.404Z,100.00
2023-05-23T23:40:26.281Z,100.00
2023-05-23T23:43:30.545Z,100.00
2023-05-23T23:46:33.518Z,100.00
2023-05-23T23:49:36.240Z,100.00
2023-05-23T23:52:39.439Z,100.00
2023-05-23T23:55:42.262Z,100.00
2023-05-23T23:58:45.259Z,100.00
